createdAt,value
2023-02-18T00:01:23.964Z,11.20
2023-02-18T00:03:51.998Z,11.20
2023-02-18T00:06:26.077Z,11.20
2023-02-18T00:08:53.718Z,11.20
2023-02-18T00:11:22.130Z,11.10
2023-02-18T00:13:58.250Z,11.20
2023-02-18T00:16:27.044Z,11.10
2023-02-18T00:18:58.710Z,11.10
2023-02-18T00:21:26.129Z,11.10
2023-02-18T00:23:53.542Z,11.00
2023-02-18T00:26:21.045Z,11.00
2023-02-18T00:28:49.476Z,11.00
2023-02-18T00:31:25.959Z,11.00
2023-02-18T00:33:53.980Z,11.00
2023-02-18T00:36:22.898Z,11.00
2023-02-18T00:38:55.847Z,10.90
2023-02-18T00:41:25.612Z,10.90
2023-02-18T00:43:53.500Z,11.00
2023-02-18T00:46:22.696Z,10.80
2023-02-18T00:48:49.922Z,10.90
2023-02-18T00:51:17.488Z,10.90
2023-02-18T00:53:44.821Z,10.80
2023-02-18T00:56:12.223Z,10.80
2023-02-18T00:58:39.487Z,10.80
2023-02-18T01:01:07.913Z,10.80
2023-02-18T01:03:36.989Z,10.70
2023-02-18T01:06:06.116Z,10.70
2023-02-18T01:08:34.629Z,10.70
2023-02-18T01:11:02.440Z,10.60
2023-02-18T01:13:30.606Z,10.80
2023-02-18T01:15:57.950Z,10.70
2023-02-18T01:18:26.608Z,10.60
2023-02-18T01:20:54.139Z,10.70
2023-02-18T01:23:23.108Z,10.70
2023-02-18T01:25:50.519Z,10.70
2023-02-18T01:28:19.018Z,10.60
2023-02-18T01:30:46.207Z,10.60
2023-02-18T01:33:13.452Z,10.60
2023-02-18T01:35:40.951Z,10.60
2023-02-18T01:38:09.252Z,10.60
2023-02-18T01:40:37.181Z,10.60
2023-02-18T01:43:04.399Z,10.60
2023-02-18T01:45:50.418Z,10.60
2023-02-18T01:48:29.274Z,10.50
2023-02-18T01:51:08.731Z,10.60
2023-02-18T01:53:40.456Z,10.50
2023-02-18T01:56:12.316Z,10.60
2023-02-18T01:58:39.877Z,10.70
2023-02-18T02:01:07.359Z,10.80
2023-02-18T02:03:35.209Z,10.70
2023-02-18T02:06:02.391Z,10.70
2023-02-18T02:08:30.231Z,10.70
2023-02-18T02:11:03.209Z,10.70
2023-02-18T02:13:45.362Z,10.80
2023-02-18T02:16:26.954Z,10.80
2023-02-18T02:19:11.968Z,10.80
2023-02-18T02:22:13.216Z,10.90
2023-02-18T02:24:57.456Z,10.90
2023-02-18T02:27:36.931Z,10.90
2023-02-18T02:30:41.316Z,10.90
2023-02-18T02:33:39.037Z,10.90
2023-02-18T02:36:31.341Z,11.00
2023-02-18T02:39:14.462Z,11.00
2023-02-18T02:41:54.322Z,11.00
2023-02-18T02:44:30.434Z,11.00
2023-02-18T02:47:11.466Z,11.00
2023-02-18T02:50:08.806Z,11.00
2023-02-18T02:52:44.100Z,11.00
2023-02-18T02:55:12.996Z,11.00
2023-02-18T02:57:48.014Z,10.90
2023-02-18T03:00:45.400Z,11.10
2023-02-18T03:03:17.954Z,11.10
2023-02-18T03:05:57.868Z,11.10
2023-02-18T03:08:40.004Z,11.20
2023-02-18T03:11:10.614Z,11.10
2023-02-18T03:13:44.204Z,11.10
2023-02-18T03:16:26.521Z,11.10
2023-02-18T03:19:26.591Z,11.00
2023-02-18T03:22:05.643Z,11.10
2023-02-18T03:24:42.412Z,11.10
2023-02-18T03:27:23.572Z,11.00
2023-02-18T03:30:17.754Z,11.00
2023-02-18T03:32:47.746Z,11.10
2023-02-18T03:35:17.491Z,11.10
2023-02-18T03:38:19.233Z,11.10
2023-02-18T03:40:47.178Z,11.10
2023-02-18T03:43:14.489Z,11.10
2023-02-18T03:45:41.763Z,11.10
2023-02-18T03:48:09.009Z,11.10
2023-02-18T03:50:36.238Z,11.10
2023-02-18T03:53:03.474Z,11.10
2023-02-18T03:55:30.853Z,11.10
2023-02-18T03:57:58.017Z,11.20
2023-02-18T04:00:25.221Z,11.10
2023-02-18T04:02:52.379Z,11.10
2023-02-18T04:05:19.570Z,11.10
2023-02-18T04:07:46.728Z,11.10
2023-02-18T04:10:13.967Z,11.10
2023-02-18T04:12:41.274Z,11.00
2023-02-18T04:15:08.893Z,11.10
2023-02-18T04:17:36.134Z,11.10
2023-02-18T04:20:04.617Z,11.10
2023-02-18T04:22:31.945Z,11.00
2023-02-18T04:25:00.431Z,11.00
2023-02-18T04:27:27.673Z,11.00
2023-02-18T04:29:55.057Z,11.00
2023-02-18T04:32:22.278Z,11.00
2023-02-18T04:34:49.457Z,11.00
2023-02-18T04:37:16.859Z,11.00
2023-02-18T04:39:44.092Z,10.90
2023-02-18T04:42:11.254Z,10.90
2023-02-18T04:44:38.516Z,10.90
2023-02-18T04:47:06.817Z,10.90
2023-02-18T04:49:34.290Z,10.90
2023-02-18T04:52:01.845Z,10.90
2023-02-18T04:54:29.060Z,10.90
2023-02-18T04:56:56.302Z,10.90
2023-02-18T04:59:23.488Z,10.90
2023-02-18T05:01:51.302Z,10.90
2023-02-18T05:04:18.714Z,10.80
2023-02-18T05:06:46.297Z,10.80
2023-02-18T05:09:13.527Z,10.80
2023-02-18T05:11:41.722Z,10.80
2023-02-18T05:14:08.919Z,10.80
2023-02-18T05:16:36.147Z,10.80
2023-02-18T05:19:03.336Z,10.80
2023-02-18T05:21:30.726Z,10.80
2023-02-18T05:23:58.016Z,10.70
2023-02-18T05:26:25.171Z,10.80
2023-02-18T05:28:52.330Z,10.80
2023-02-18T05:31:19.530Z,10.80
2023-02-18T05:33:46.798Z,10.80
2023-02-18T05:36:13.991Z,10.90
2023-02-18T05:38:41.205Z,10.80
2023-02-18T05:41:08.430Z,10.80
2023-02-18T05:43:55.556Z,10.80
2023-02-18T05:46:23.296Z,10.90
2023-02-18T05:48:50.477Z,10.80
2023-02-18T05:51:17.663Z,10.80
2023-02-18T05:53:44.862Z,10.80
2023-02-18T05:56:11.996Z,10.80
2023-02-18T05:58:39.178Z,10.80
2023-02-18T06:01:06.361Z,10.90
2023-02-18T06:03:33.826Z,10.80
2023-02-18T06:06:02.033Z,10.80
2023-02-18T06:08:29.273Z,10.90
2023-02-18T06:10:56.494Z,10.80
2023-02-18T06:13:23.745Z,10.90
2023-02-18T06:15:51.885Z,10.90
2023-02-18T06:18:19.216Z,10.90
2023-02-18T06:20:48.453Z,10.90
2023-02-18T06:23:15.890Z,10.90
2023-02-18T06:25:43.202Z,10.90
2023-02-18T06:28:10.534Z,10.90
2023-02-18T06:30:37.756Z,10.90
2023-02-18T06:33:05.001Z,11.00
2023-02-18T06:35:32.414Z,10.90
2023-02-18T06:37:59.638Z,10.90
2023-02-18T06:40:26.994Z,10.90
2023-02-18T06:42:54.273Z,10.90
2023-02-18T06:45:21.675Z,10.90
2023-02-18T06:47:49.076Z,11.00
2023-02-18T06:50:16.517Z,11.00
2023-02-18T06:52:43.685Z,11.00
2023-02-18T06:55:11.721Z,11.10
2023-02-18T06:57:38.986Z,11.10
2023-02-18T07:00:06.878Z,11.10
2023-02-18T07:02:34.036Z,11.10
2023-02-18T07:05:01.865Z,11.10
2023-02-18T07:07:29.104Z,11.20
2023-02-18T07:09:56.314Z,11.20
2023-02-18T07:12:23.624Z,11.30
2023-02-18T07:14:50.762Z,11.20
2023-02-18T07:17:18.027Z,11.20
2023-02-18T07:19:45.294Z,11.30
2023-02-18T07:22:12.470Z,11.20
2023-02-18T07:24:39.697Z,11.30
2023-02-18T07:27:06.900Z,11.30
2023-02-18T07:29:34.298Z,11.30
2023-02-18T07:32:01.564Z,11.30
2023-02-18T07:34:29.077Z,11.30
2023-02-18T07:36:56.250Z,11.40
2023-02-18T07:39:23.410Z,11.20
2023-02-18T07:41:50.582Z,11.30
2023-02-18T07:44:17.765Z,11.30
2023-02-18T07:46:46.666Z,11.20
2023-02-18T07:49:14.704Z,11.40
2023-02-18T07:51:41.899Z,11.20
2023-02-18T07:54:09.109Z,11.20
2023-02-18T07:56:36.276Z,11.30
2023-02-18T07:59:03.546Z,11.40
2023-02-18T08:01:30.971Z,11.40
2023-02-18T08:03:58.167Z,11.20
2023-02-18T08:06:35.360Z,11.40
2023-02-18T08:09:03.204Z,11.30
2023-02-18T08:11:30.994Z,11.30
2023-02-18T08:13:58.213Z,11.30
2023-02-18T08:16:25.427Z,11.30
2023-02-18T08:18:52.905Z,11.40
2023-02-18T08:21:22.072Z,11.50
2023-02-18T08:23:49.913Z,11.50
2023-02-18T08:26:17.967Z,11.50
2023-02-18T08:28:46.684Z,11.60
2023-02-18T08:31:22.597Z,11.70
2023-02-18T08:33:50.366Z,11.60
2023-02-18T08:36:17.842Z,11.60
2023-02-18T08:38:45.066Z,11.70
2023-02-18T08:41:14.335Z,11.70
2023-02-18T08:43:42.465Z,11.70
2023-02-18T08:46:15.793Z,11.70
2023-02-18T08:48:44.573Z,11.90
2023-02-18T08:51:20.965Z,11.80
2023-02-18T08:53:49.963Z,12.10
2023-02-18T08:56:17.666Z,12.10
2023-02-18T08:58:45.096Z,12.10
2023-02-18T09:01:13.555Z,12.20
2023-02-18T09:03:41.133Z,12.50
2023-02-18T09:06:09.101Z,12.50
2023-02-18T09:08:36.385Z,12.20
2023-02-18T09:11:04.985Z,12.20
2023-02-18T09:13:33.477Z,12.20
2023-02-18T09:16:07.426Z,12.20
2023-02-18T09:18:35.865Z,12.30
2023-02-18T09:21:04.852Z,12.40
2023-02-18T09:23:33.418Z,12.40
2023-02-18T09:26:03.686Z,12.30
2023-02-18T09:28:30.916Z,12.30
2023-02-18T09:30:58.226Z,12.20
2023-02-18T09:33:25.407Z,12.30
2023-02-18T09:35:52.584Z,12.30
2023-02-18T09:38:19.762Z,12.40
2023-02-18T09:40:53.562Z,12.40
2023-02-18T09:43:34.416Z,12.60
2023-02-18T09:46:04.232Z,12.70
2023-02-18T09:48:35.012Z,12.60
2023-02-18T09:51:02.506Z,12.60
2023-02-18T09:53:29.673Z,12.70
2023-02-18T09:55:58.687Z,12.90
2023-02-18T09:58:32.892Z,12.90
2023-02-18T10:01:22.632Z,13.10
2023-02-18T10:03:50.012Z,13.30
2023-02-18T10:06:25.268Z,13.30
2023-02-18T10:08:55.036Z,13.20
2023-02-18T10:11:29.413Z,13.30
2023-02-18T10:14:00.916Z,13.30
2023-02-18T10:16:28.618Z,13.30
2023-02-18T10:19:03.715Z,13.40
2023-02-18T10:21:36.081Z,13.50
2023-02-18T10:24:20.226Z,13.40
2023-02-18T10:26:48.454Z,13.40
2023-02-18T10:29:21.384Z,13.30
2023-02-18T10:31:57.307Z,13.40
2023-02-18T10:34:36.923Z,13.40
2023-02-18T10:37:21.750Z,13.50
2023-02-18T10:40:09.025Z,13.60
2023-02-18T10:42:49.761Z,13.80
2023-02-18T10:45:41.842Z,13.80
2023-02-18T10:48:34.987Z,13.80
2023-02-18T10:51:34.766Z,13.90
2023-02-18T10:54:02.093Z,14.00
2023-02-18T10:56:34.591Z,14.00
2023-02-18T10:59:41.489Z,14.10
2023-02-18T11:02:18.158Z,14.10
2023-02-18T11:04:46.667Z,14.20
2023-02-18T11:07:21.929Z,14.20
2023-02-18T11:10:29.083Z,14.20
2023-02-18T11:13:00.848Z,14.30
2023-02-18T11:15:28.946Z,14.40
2023-02-18T11:17:59.950Z,14.50
2023-02-18T11:20:36.507Z,14.70
2023-02-18T11:23:06.547Z,14.80
2023-02-18T11:25:41.109Z,15.00
2023-02-18T11:28:17.447Z,15.00
2023-02-18T11:30:48.749Z,15.00
2023-02-18T11:33:30.299Z,15.20
2023-02-18T11:35:58.807Z,15.00
2023-02-18T11:38:41.541Z,15.10
2023-02-18T11:41:12.032Z,15.20
2023-02-18T11:43:46.282Z,15.10
2023-02-18T11:46:15.378Z,15.20
2023-02-18T11:48:42.699Z,15.20
2023-02-18T11:51:26.718Z,15.10
2023-02-18T11:54:19.307Z,15.10
2023-02-18T11:57:05.212Z,15.20
2023-02-18T11:59:35.750Z,15.00
2023-02-18T12:02:25.916Z,15.00
2023-02-18T12:04:59.932Z,14.80
2023-02-18T12:07:49.503Z,14.80
2023-02-18T12:10:25.215Z,15.00
2023-02-18T12:13:22.238Z,15.00
2023-02-18T12:16:24.500Z,15.20
2023-02-18T12:18:57.551Z,15.20
2023-02-18T12:21:36.340Z,15.40
2023-02-18T12:24:44.790Z,15.20
2023-02-18T12:27:12.005Z,15.20
2023-02-18T12:30:00.756Z,15.20
2023-02-18T12:32:55.375Z,15.30
2023-02-18T12:35:40.846Z,15.40
2023-02-18T12:38:39.263Z,15.50
2023-02-18T12:41:24.491Z,15.40
2023-02-18T12:43:54.380Z,15.50
2023-02-18T12:46:32.358Z,15.50
2023-02-18T12:49:18.560Z,15.40
2023-02-18T12:52:12.726Z,15.40
2023-02-18T12:54:49.788Z,15.10
2023-02-18T12:57:42.465Z,14.90
2023-02-18T13:00:40.318Z,14.90
2023-02-18T13:03:23.545Z,15.10
2023-02-18T13:05:59.607Z,15.30
2023-02-18T13:08:44.586Z,15.40
2023-02-18T13:11:33.641Z,15.40
2023-02-18T13:14:16.264Z,15.40
2023-02-18T13:16:48.795Z,15.30
2023-02-18T13:19:24.669Z,15.40
2023-02-18T13:21:55.884Z,15.50
2023-02-18T13:24:38.873Z,15.50
2023-02-18T13:27:27.726Z,15.50
2023-02-18T13:29:57.716Z,15.50
2023-02-18T13:32:56.249Z,15.50
2023-02-18T13:35:40.896Z,15.10
2023-02-18T13:38:28.268Z,15.10
2023-02-18T13:40:58.138Z,15.10
2023-02-18T13:43:28.149Z,14.80
2023-02-18T13:46:07.509Z,14.80
2023-02-18T13:48:44.712Z,14.80
2023-02-18T13:51:31.490Z,14.70
2023-02-18T13:54:13.151Z,14.70
2023-02-18T13:56:57.694Z,14.80
2023-02-18T13:59:36.197Z,14.70
2023-02-18T14:02:21.637Z,14.50
2023-02-18T14:04:52.319Z,14.50
2023-02-18T14:07:41.462Z,14.40
2023-02-18T14:10:18.261Z,14.30
2023-02-18T14:12:57.982Z,14.30
2023-02-18T14:15:25.180Z,14.20
2023-02-18T14:18:23.900Z,14.30
2023-02-18T14:20:52.546Z,14.20
2023-02-18T14:23:22.598Z,14.10
2023-02-18T14:26:06.819Z,14.20
2023-02-18T14:28:34.014Z,14.00
2023-02-18T14:31:12.192Z,14.00
2023-02-18T14:34:00.709Z,14.00
2023-02-18T14:36:41.455Z,13.90
2023-02-18T14:39:43.611Z,13.70
2023-02-18T14:42:20.957Z,13.70
2023-02-18T14:45:09.523Z,13.70
2023-02-18T14:47:45.618Z,13.60
2023-02-18T14:50:16.427Z,13.60
2023-02-18T14:52:56.629Z,13.50
2023-02-18T14:55:30.725Z,13.60
2023-02-18T14:58:13.114Z,13.60
2023-02-18T15:00:42.727Z,13.70
2023-02-18T15:03:22.282Z,13.70
2023-02-18T15:05:51.324Z,13.70
2023-02-18T15:08:26.077Z,13.60
2023-02-18T15:11:06.181Z,13.50
2023-02-18T15:13:36.798Z,13.40
2023-02-18T15:16:09.718Z,13.40
2023-02-18T15:18:41.118Z,13.30
2023-02-18T15:21:17.767Z,13.40
2023-02-18T15:23:46.374Z,13.40
2023-02-18T15:26:17.181Z,13.40
2023-02-18T15:29:19.650Z,13.40
2023-02-18T15:31:48.231Z,13.30
2023-02-18T15:34:29.209Z,13.30
2023-02-18T15:36:56.998Z,13.30
2023-02-18T15:39:24.950Z,13.30
2023-02-18T15:41:57.461Z,13.20
2023-02-18T15:44:27.602Z,13.20
2023-02-18T15:46:55.152Z,13.20
2023-02-18T15:49:24.549Z,13.10
2023-02-18T15:51:57.666Z,13.10
2023-02-18T15:54:25.045Z,13.20
2023-02-18T15:57:00.250Z,13.10
2023-02-18T15:59:34.494Z,13.00
2023-02-18T16:02:23.458Z,12.90
2023-02-18T16:04:56.269Z,13.00
2023-02-18T16:07:29.754Z,12.90
2023-02-18T16:10:33.113Z,12.90
2023-02-18T16:13:00.445Z,12.90
2023-02-18T16:15:31.502Z,12.80
2023-02-18T16:18:01.633Z,12.90
2023-02-18T16:20:33.610Z,12.80
2023-02-18T16:23:04.310Z,12.70
2023-02-18T16:25:43.905Z,12.70
2023-02-18T16:28:27.793Z,12.60
2023-02-18T16:30:55.103Z,12.60
2023-02-18T16:33:22.282Z,12.50
2023-02-18T16:35:50.894Z,12.50
2023-02-18T16:38:21.871Z,12.40
2023-02-18T16:40:49.731Z,12.40
2023-02-18T16:43:22.156Z,12.40
2023-02-18T16:45:55.642Z,12.40
2023-02-18T16:48:36.892Z,12.40
2023-02-18T16:51:09.459Z,12.40
2023-02-18T16:53:37.139Z,12.30
2023-02-18T16:56:04.757Z,12.30
2023-02-18T16:58:31.925Z,12.20
2023-02-18T17:00:59.236Z,12.20
2023-02-18T17:03:26.455Z,12.30
2023-02-18T17:05:53.623Z,12.30
2023-02-18T17:08:26.336Z,12.30
2023-02-18T17:10:56.237Z,12.20
2023-02-18T17:13:29.191Z,12.20
2023-02-18T17:15:58.307Z,12.20
2023-02-18T17:18:26.160Z,12.20
2023-02-18T17:20:54.329Z,12.20
2023-02-18T17:23:23.971Z,12.20
2023-02-18T17:25:52.441Z,12.20
2023-02-18T17:28:20.001Z,12.20
2023-02-18T17:30:56.962Z,12.10
2023-02-18T17:33:25.202Z,12.20
2023-02-18T17:35:52.935Z,12.20
2023-02-18T17:38:20.182Z,12.20
2023-02-18T17:40:49.882Z,12.10
2023-02-18T17:43:19.618Z,12.10
2023-02-18T17:45:51.680Z,12.10
2023-02-18T17:48:19.363Z,12.20
2023-02-18T17:50:46.783Z,12.10
2023-02-18T17:53:14.547Z,12.10
2023-02-18T17:55:43.692Z,12.10
2023-02-18T17:58:11.812Z,12.10
2023-02-18T18:00:45.416Z,12.10
2023-02-18T18:03:14.164Z,12.00
2023-02-18T18:05:44.626Z,12.10
2023-02-18T18:08:11.854Z,12.10
2023-02-18T18:10:41.698Z,12.10
2023-02-18T18:13:15.894Z,12.00
2023-02-18T18:15:44.187Z,12.00
2023-02-18T18:18:12.939Z,12.00
2023-02-18T18:20:43.643Z,12.10
2023-02-18T18:23:21.379Z,12.00
2023-02-18T18:25:53.626Z,12.00
2023-02-18T18:28:20.962Z,12.00
2023-02-18T18:30:52.132Z,12.00
2023-02-18T18:33:26.022Z,12.00
2023-02-18T18:35:55.046Z,12.00
2023-02-18T18:38:24.108Z,11.80
2023-02-18T18:40:53.023Z,11.90
2023-02-18T18:43:27.592Z,11.90
2023-02-18T18:45:55.440Z,11.90
2023-02-18T18:48:24.011Z,11.90
2023-02-18T18:50:53.222Z,11.90
2023-02-18T18:53:26.784Z,11.90
2023-02-18T18:55:56.847Z,11.80
2023-02-18T18:58:26.909Z,11.80
2023-02-18T19:01:04.814Z,11.80
2023-02-18T19:03:33.871Z,11.80
2023-02-18T19:06:01.114Z,11.80
2023-02-18T19:08:29.209Z,11.80
2023-02-18T19:10:57.757Z,11.80
2023-02-18T19:13:29.008Z,11.90
2023-02-18T19:16:17.983Z,11.80
2023-02-18T19:18:45.762Z,11.80
2023-02-18T19:21:13.031Z,11.90
2023-02-18T19:23:40.782Z,11.90
2023-02-18T19:26:08.507Z,11.70
2023-02-18T19:28:36.099Z,11.80
2023-02-18T19:31:08.627Z,11.80
2023-02-18T19:33:36.979Z,11.80
2023-02-18T19:36:09.192Z,11.80
2023-02-18T19:38:36.580Z,11.80
2023-02-18T19:41:09.243Z,11.80
2023-02-18T19:43:36.571Z,11.80
2023-02-18T19:46:09.408Z,11.70
2023-02-18T19:48:37.302Z,11.70
2023-02-18T19:51:05.420Z,11.80
2023-02-18T19:53:32.657Z,11.80
2023-02-18T19:56:02.545Z,11.80
2023-02-18T19:58:29.868Z,11.70
2023-02-18T20:00:57.095Z,11.70
2023-02-18T20:03:24.263Z,11.70
2023-02-18T20:05:51.495Z,11.80
2023-02-18T20:08:18.702Z,11.80
2023-02-18T20:10:45.893Z,11.70
2023-02-18T20:13:13.037Z,11.70
2023-02-18T20:15:41.134Z,11.70
2023-02-18T20:18:08.601Z,11.80
2023-02-18T20:20:35.790Z,11.70
2023-02-18T20:23:02.940Z,11.70
2023-02-18T20:25:30.839Z,11.70
2023-02-18T20:28:00.853Z,11.70
2023-02-18T20:30:29.077Z,11.70
2023-02-18T20:32:56.296Z,11.70
2023-02-18T20:35:23.870Z,11.60
2023-02-18T20:37:51.131Z,11.70
2023-02-18T20:40:18.308Z,11.60
2023-02-18T20:42:45.477Z,11.60
2023-02-18T20:45:12.653Z,11.60
2023-02-18T20:47:39.817Z,11.50
2023-02-18T20:50:07.496Z,11.60
2023-02-18T20:52:34.922Z,11.50
2023-02-18T20:55:02.405Z,11.50
2023-02-18T20:57:29.568Z,11.60
2023-02-18T20:59:58.272Z,11.60
2023-02-18T21:02:25.549Z,11.60
2023-02-18T21:04:52.791Z,11.60
2023-02-18T21:07:19.963Z,11.60
2023-02-18T21:09:47.125Z,11.50
2023-02-18T21:12:14.285Z,11.40
2023-02-18T21:14:41.491Z,11.40
2023-02-18T21:17:09.693Z,11.40
2023-02-18T21:19:36.950Z,11.40
2023-02-18T21:22:04.137Z,11.50
2023-02-18T21:24:31.911Z,11.40
2023-02-18T21:26:59.164Z,11.40
2023-02-18T21:29:26.696Z,11.40
2023-02-18T21:31:53.971Z,11.50
2023-02-18T21:34:22.628Z,11.40
2023-02-18T21:36:49.956Z,11.40
2023-02-18T21:39:17.365Z,11.40
2023-02-18T21:41:44.520Z,11.40
2023-02-18T21:44:11.690Z,11.30
2023-02-18T21:46:39.700Z,11.30
2023-02-18T21:49:09.181Z,11.30
2023-02-18T21:51:56.996Z,11.30
2023-02-18T21:54:33.593Z,11.30
2023-02-18T21:57:03.649Z,11.30
2023-02-18T21:59:32.034Z,11.30
2023-02-18T22:02:00.310Z,11.30
2023-02-18T22:04:29.466Z,11.40
2023-02-18T22:06:58.450Z,11.40
2023-02-18T22:09:26.262Z,11.30
2023-02-18T22:11:53.689Z,11.30
2023-02-18T22:14:21.424Z,11.40
2023-02-18T22:16:48.784Z,11.30
2023-02-18T22:19:15.992Z,11.30
2023-02-18T22:21:44.065Z,11.30
2023-02-18T22:24:13.678Z,11.30
2023-02-18T22:26:41.776Z,11.20
2023-02-18T22:29:10.072Z,11.20
2023-02-18T22:31:37.498Z,11.20
2023-02-18T22:34:05.049Z,11.20
2023-02-18T22:36:32.938Z,11.20
2023-02-18T22:39:00.735Z,11.20
2023-02-18T22:41:29.723Z,11.30
2023-02-18T22:43:58.988Z,11.30
2023-02-18T22:46:27.070Z,11.20
2023-02-18T22:48:57.798Z,11.30
2023-02-18T22:51:31.245Z,11.30
2023-02-18T22:54:00.130Z,11.20
2023-02-18T22:56:29.130Z,11.30
2023-02-18T22:58:57.869Z,11.20
2023-02-18T23:01:39.821Z,11.30
2023-02-18T23:04:13.033Z,11.20
2023-02-18T23:06:43.388Z,11.20
2023-02-18T23:09:23.715Z,11.20
2023-02-18T23:11:53.095Z,11.20
2023-02-18T23:14:23.634Z,11.20
2023-02-18T23:17:13.847Z,11.20
2023-02-18T23:19:46.372Z,11.20
2023-02-18T23:22:19.438Z,11.20
2023-02-18T23:24:47.016Z,11.20
2023-02-18T23:27:17.622Z,11.20
2023-02-18T23:29:44.806Z,11.10
2023-02-18T23:32:12.132Z,11.10
2023-02-18T23:34:39.630Z,11.10
2023-02-18T23:37:06.911Z,11.00
2023-02-18T23:39:34.257Z,11.10
2023-02-18T23:42:01.529Z,11.10
2023-02-18T23:44:28.865Z,11.10
2023-02-18T23:46:56.194Z,11.10
2023-02-18T23:49:25.791Z,11.10
2023-02-18T23:51:55.223Z,11.10
2023-02-18T23:54:23.419Z,11.10
2023-02-18T23:56:51.051Z,11.00
2023-02-18T23:59:18.367Z,11.00
